sensor_id;sensor_type;location;lat;lon;timestamp;pressure;altitude;pressure_sealevel;temperature;humidity
12219;BME280;6172;42.646;23.344;2023-04-19T00:00:35;94207.56;;;8.26;100.00
12219;BME280;6172;42.646;23.344;2023-04-19T00:03:02;94221.19;;;8.22;100.00
12219;BME280;6172;42.646;23.344;2023-04-19T00:05:31;94213.56;;;8.13;100.00
12219;BME280;6172;42.646;23.344;2023-04-19T00:07:58;94200.75;;;8.14;100.00
12219;BME280;6172;42.646;23.344;2023-04-19T00:10:25;94211.56;;;8.18;100.00
12219;BME280;6172;42.646;23.344;2023-04-19T00:12:52;94203.63;;;8.03;100.00
12219;BME280;6172;42.646;23.344;2023-04-19T00:15:19;94204.69;;;8.09;100.00
12219;BME280;6172;42.646;23.344;2023-04-19T00:17:46;94207.03;;;8.07;100.00
12219;BME280;6172;42.646;23.344;2023-04-19T00:20:14;94202.13;;;7.99;100.00
12219;BME280;6172;42.646;23.344;2023-04-19T00:22:42;94202.75;;;8.10;100.00
12219;BME280;6172;42.646;23.344;2023-04-19T00:25:09;94198.69;;;7.95;100.00
12219;BME280;6172;42.646;23.344;2023-04-19T00:27:36;94198.44;;;7.86;100.00
12219;BME280;6172;42.646;23.344;2023-04-19T00:30:04;94197.97;;;7.91;100.00
12219;BME280;6172;42.646;23.344;2023-04-19T00:32:30;94192.19;;;7.89;100.00
12219;BME280;6172;42.646;23.344;2023-04-19T00:34:57;94201.00;;;7.96;100.00
12219;BME280;6172;42.646;23.344;2023-04-19T00:37:24;94193.94;;;8.02;100.00
12219;BME280;6172;42.646;23.344;2023-04-19T00:39:52;94192.31;;;8.08;100.00
12219;BME280;6172;42.646;23.344;2023-04-19T00:42:19;94194.63;;;8.10;100.00
12219;BME280;6172;42.646;23.344;2023-04-19T00:44:46;94190.00;;;8.07;100.00
12219;BME280;6172;42.646;23.344;2023-04-19T00:47:13;94192.31;;;8.08;100.00
12219;BME280;6172;42.646;23.344;2023-04-19T00:49:40;94185.53;;;7.93;100.00
12219;BME280;6172;42.646;23.344;2023-04-19T00:52:07;94184.69;;;8.00;100.00
12219;BME280;6172;42.646;23.344;2023-04-19T00:54:34;94194.75;;;7.99;100.00
12219;BME280;6172;42.646;23.344;2023-04-19T00:57:04;94186.06;;;8.12;100.00
12219;BME280;6172;42.646;23.344;2023-04-19T00:59:32;94188.69;;;8.19;100.00
12219;BME280;6172;42.646;23.344;2023-04-19T01:02:00;94187.94;;;8.14;100.00
12219;BME280;6172;42.646;23.344;2023-04-19T01:04:26;94174.84;;;8.09;100.00
12219;BME280;6172;42.646;23.344;2023-04-19T01:06:53;94180.16;;;8.17;100.00
12219;BME280;6172;42.646;23.344;2023-04-19T01:09:20;94165.53;;;8.10;100.00
12219;BME280;6172;42.646;23.344;2023-04-19T01:11:47;94179.06;;;8.14;100.00
12219;BME280;6172;42.646;23.344;2023-04-19T01:14:15;94169.63;;;8.22;100.00
12219;BME280;6172;42.646;23.344;2023-04-19T01:16:44;94177.34;;;8.24;100.00
12219;BME280;6172;42.646;23.344;2023-04-19T01:19:12;94172.25;;;8.02;100.00
12219;BME280;6172;42.646;23.344;2023-04-19T01:21:39;94177.56;;;8.09;100.00
12219;BME280;6172;42.646;23.344;2023-04-19T01:24:08;94170.72;;;8.01;100.00
12219;BME280;6172;42.646;23.344;2023-04-19T01:26:35;94177.50;;;8.13;100.00
12219;BME280;6172;42.646;23.344;2023-04-19T01:29:02;94177.56;;;8.09;100.00
12219;BME280;6172;42.646;23.344;2023-04-19T01:31:28;94176.88;;;8.02;100.00
12219;BME280;6172;42.646;23.344;2023-04-19T01:33:55;94176.13;;;8.01;100.00
12219;BME280;6172;42.646;23.344;2023-04-19T01:36:22;94176.97;;;7.98;100.00
12219;BME280;6172;42.646;23.344;2023-04-19T01:38:49;94173.50;;;7.94;100.00
12219;BME280;6172;42.646;23.344;2023-04-19T01:41:17;94174.69;;;7.93;100.00
12219;BME280;6172;42.646;23.344;2023-04-19T01:43:44;94176.38;;;7.84;100.00
12219;BME280;6172;42.646;23.344;2023-04-19T01:46:11;94172.88;;;7.83;100.00
12219;BME280;6172;42.646;23.344;2023-04-19T01:48:38;94161.66;;;7.81;100.00
12219;BME280;6172;42.646;23.344;2023-04-19T01:51:05;94168.19;;;7.87;100.00
12219;BME280;6172;42.646;23.344;2023-04-19T01:53:32;94162.72;;;7.91;100.00
12219;BME280;6172;42.646;23.344;2023-04-19T01:55:59;94164.63;;;7.94;100.00
12219;BME280;6172;42.646;23.344;2023-04-19T01:58:27;94167.78;;;7.89;100.00
12219;BME280;6172;42.646;23.344;2023-04-19T02:00:53;94163.13;;;7.89;100.00
12219;BME280;6172;42.646;23.344;2023-04-19T02:03:20;94170.19;;;7.83;100.00
12219;BME280;6172;42.646;23.344;2023-04-19T02:05:47;94164.56;;;7.67;100.00
12219;BME280;6172;42.646;23.344;2023-04-19T02:08:14;94162.16;;;7.73;100.00
12219;BME280;6172;42.646;23.344;2023-04-19T02:10:41;94170.38;;;7.69;100.00
12219;BME280;6172;42.646;23.344;2023-04-19T02:13:07;94154.84;;;7.70;100.00
12219;BME280;6172;42.646;23.344;2023-04-19T02:15:37;94165.28;;;7.71;100.00
12219;BME280;6172;42.646;23.344;2023-04-19T02:18:03;94159.66;;;7.59;100.00
12219;BME280;6172;42.646;23.344;2023-04-19T02:20:31;94169.38;;;7.56;100.00
12219;BME280;6172;42.646;23.344;2023-04-19T02:22:57;94165.84;;;7.59;100.00
12219;BME280;6172;42.646;23.344;2023-04-19T02:25:24;94167.84;;;7.55;100.00
12219;BME280;6172;42.646;23.344;2023-04-19T02:27:51;94164.63;;;7.64;100.00
12219;BME280;6172;42.646;23.344;2023-04-19T02:30:18;94160.84;;;7.58;100.00
12219;BME280;6172;42.646;23.344;2023-04-19T02:32:48;94151.59;;;7.52;100.00
12219;BME280;6172;42.646;23.344;2023-04-19T02:35:14;94158.22;;;7.51;100.00
12219;BME280;6172;42.646;23.344;2023-04-19T02:37:43;94149.81;;;7.38;100.00
12219;BME280;6172;42.646;23.344;2023-04-19T02:40:10;94153.72;;;7.37;100.00
12219;BME280;6172;42.646;23.344;2023-04-19T02:42:37;94169.34;;;7.26;100.00
12219;BME280;6172;42.646;23.344;2023-04-19T02:45:04;94171.06;;;7.47;100.00
12219;BME280;6172;42.646;23.344;2023-04-19T02:47:31;94163.38;;;7.38;100.00
12219;BME280;6172;42.646;23.344;2023-04-19T02:50:00;94174.56;;;7.44;100.00
12219;BME280;6172;42.646;23.344;2023-04-19T02:52:27;94169.72;;;7.58;100.00
12219;BME280;6172;42.646;23.344;2023-04-19T02:54:53;94169.16;;;7.44;100.00
12219;BME280;6172;42.646;23.344;2023-04-19T02:57:20;94160.31;;;7.36;100.00
12219;BME280;6172;42.646;23.344;2023-04-19T02:59:47;94170.19;;;7.53;100.00
12219;BME280;6172;42.646;23.344;2023-04-19T03:02:14;94169.28;;;7.63;100.00
12219;BME280;6172;42.646;23.344;2023-04-19T03:04:40;94169.56;;;7.42;100.00
12219;BME280;6172;42.646;23.344;2023-04-19T03:07:09;94178.09;;;7.41;100.00
12219;BME280;6172;42.646;23.344;2023-04-19T03:09:35;94169.69;;;7.62;100.00
12219;BME280;6172;42.646;23.344;2023-04-19T03:12:03;94162.81;;;7.54;100.00
12219;BME280;6172;42.646;23.344;2023-04-19T03:14:29;94171.41;;;7.49;100.00
12219;BME280;6172;42.646;23.344;2023-04-19T03:16:58;94160.53;;;7.52;100.00
12219;BME280;6172;42.646;23.344;2023-04-19T03:19:25;94156.00;;;7.42;100.00
12219;BME280;6172;42.646;23.344;2023-04-19T03:21:51;94159.91;;;7.38;100.00
12219;BME280;6172;42.646;23.344;2023-04-19T03:24:26;94160.00;;;7.31;100.00
12219;BME280;6172;42.646;23.344;2023-04-19T03:26:53;94162.34;;;7.29;100.00
12219;BME280;6172;42.646;23.344;2023-04-19T03:29:20;94157.56;;;7.40;100.00
12219;BME280;6172;42.646;23.344;2023-04-19T03:31:47;94159.22;;;7.30;100.00
12219;BME280;6172;42.646;23.344;2023-04-19T03:34:14;94164.66;;;7.30;100.00
12219;BME280;6172;42.646;23.344;2023-04-19T03:36:41;94159.19;;;7.34;100.00
12219;BME280;6172;42.646;23.344;2023-04-19T03:39:08;94162.75;;;7.27;100.00
12219;BME280;6172;42.646;23.344;2023-04-19T03:41:40;94152.41;;;7.19;100.00
12219;BME280;6172;42.646;23.344;2023-04-19T03:44:07;94162.06;;;7.20;100.00
12219;BME280;6172;42.646;23.344;2023-04-19T03:46:34;94161.31;;;7.19;100.00
12219;BME280;6172;42.646;23.344;2023-04-19T03:49:01;94161.66;;;7.21;100.00
12219;BME280;6172;42.646;23.344;2023-04-19T03:51:28;94146.09;;;7.29;100.00
12219;BME280;6172;42.646;23.344;2023-04-19T03:53:55;94151.88;;;7.31;100.00
12219;BME280;6172;42.646;23.344;2023-04-19T03:56:22;94155.22;;;7.42;100.00
12219;BME280;6172;42.646;23.344;2023-04-19T03:58:51;94149.81;;;7.38;100.00
12219;BME280;6172;42.646;23.344;2023-04-19T04:01:19;94156.94;;;7.25;100.00
12219;BME280;6172;42.646;23.344;2023-04-19T04:03:46;94152.44;;;7.15;100.00
12219;BME280;6172;42.646;23.344;2023-04-19T04:06:13;94154.16;;;7.02;100.00
12219;BME280;6172;42.646;23.344;2023-04-19T04:08:40;94152.59;;;7.01;100.00
12219;BME280;6172;42.646;23.344;2023-04-19T04:11:07;94154.78;;;7.13;100.00
12219;BME280;6172;42.646;23.344;2023-04-19T04:13:34;94152.09;;;7.10;100.00
12219;BME280;6172;42.646;23.344;2023-04-19T04:16:03;94154.50;;;7.04;100.00
12219;BME280;6172;42.646;23.344;2023-04-19T04:18:32;94164.13;;;7.09;100.00
12219;BME280;6172;42.646;23.344;2023-04-19T04:20:59;94167.22;;;7.11;100.00
12219;BME280;6172;42.646;23.344;2023-04-19T04:23:26;94166.44;;;7.07;100.00
12219;BME280;6172;42.646;23.344;2023-04-19T04:25:57;94164.94;;;7.06;100.00
12219;BME280;6172;42.646;23.344;2023-04-19T04:28:25;94167.31;;;7.00;100.00
12219;BME280;6172;42.646;23.344;2023-04-19T04:30:52;94170.75;;;7.04;100.00
12219;BME280;6172;42.646;23.344;2023-04-19T04:33:23;94180.00;;;7.07;100.00
12219;BME280;6172;42.646;23.344;2023-04-19T04:35:51;94161.00;;;7.10;100.00
12219;BME280;6172;42.646;23.344;2023-04-19T04:38:17;94175.03;;;7.02;100.00
12219;BME280;6172;42.646;23.344;2023-04-19T04:40:48;94173.38;;;7.11;100.00
12219;BME280;6172;42.646;23.344;2023-04-19T04:43:15;94180.41;;;7.05;100.00
12219;BME280;6172;42.646;23.344;2023-04-19T04:45:42;94171.94;;;7.00;100.00
12219;BME280;6172;42.646;23.344;2023-04-19T04:48:09;94181.16;;;7.09;100.00
12219;BME280;6172;42.646;23.344;2023-04-19T04:50:38;94179.25;;;7.06;100.00
12219;BME280;6172;42.646;23.344;2023-04-19T04:53:05;94180.75;;;7.11;100.00
12219;BME280;6172;42.646;23.344;2023-04-19T04:55:32;94168.84;;;7.01;100.00
12219;BME280;6172;42.646;23.344;2023-04-19T04:57:59;94177.25;;;7.10;100.00
12219;BME280;6172;42.646;23.344;2023-04-19T05:00:26;94175.69;;;7.13;100.00
12219;BME280;6172;42.646;23.344;2023-04-19T05:02:53;94172.25;;;7.09;100.00
12219;BME280;6172;42.646;23.344;2023-04-19T05:05:20;94172.47;;;7.25;100.00
12219;BME280;6172;42.646;23.344;2023-04-19T05:07:48;94176.22;;;7.34;100.00
12219;BME280;6172;42.646;23.344;2023-04-19T05:10:15;94187.88;;;7.31;100.00
12219;BME280;6172;42.646;23.344;2023-04-19T05:12:42;94182.31;;;7.45;100.00
12219;BME280;6172;42.646;23.344;2023-04-19T05:15:08;94173.41;;;7.41;100.00
12219;BME280;6172;42.646;23.344;2023-04-19T05:17:36;94185.72;;;7.49;100.00
12219;BME280;6172;42.646;23.344;2023-04-19T05:20:03;94182.31;;;7.45;100.00
12219;BME280;6172;42.646;23.344;2023-04-19T05:22:31;94169.88;;;7.48;100.00
12219;BME280;6172;42.646;23.344;2023-04-19T05:24:59;94183.66;;;7.60;100.00
12219;BME280;6172;42.646;23.344;2023-04-19T05:27:26;94185.16;;;7.65;100.00
12219;BME280;6172;42.646;23.344;2023-04-19T05:29:53;94173.97;;;7.59;100.00
12219;BME280;6172;42.646;23.344;2023-04-19T05:32:20;94181.97;;;7.70;100.00
12219;BME280;6172;42.646;23.344;2023-04-19T05:34:47;94183.88;;;7.73;100.00
12219;BME280;6172;42.646;23.344;2023-04-19T05:37:13;94188.06;;;7.77;100.00
12219;BME280;6172;42.646;23.344;2023-04-19T05:39:40;94187.22;;;7.84;100.00
12219;BME280;6172;42.646;23.344;2023-04-19T05:42:08;94187.16;;;7.87;100.00
12219;BME280;6172;42.646;23.344;2023-04-19T05:44:35;94185.44;;;8.00;100.00
12219;BME280;6172;42.646;23.344;2023-04-19T05:47:02;94185.59;;;8.17;100.00
12219;BME280;6172;42.646;23.344;2023-04-19T05:49:29;94181.53;;;8.28;100.00
12219;BME280;6172;42.646;23.344;2023-04-19T05:51:55;94181.13;;;8.30;100.00
12219;BME280;6172;42.646;23.344;2023-04-19T05:54:22;94181.72;;;8.44;100.00
12219;BME280;6172;42.646;23.344;2023-04-19T05:56:49;94183.97;;;8.49;100.00
12219;BME280;6172;42.646;23.344;2023-04-19T05:59:20;94180.13;;;8.47;100.00
12219;BME280;6172;42.646;23.344;2023-04-19T06:01:47;94173.63;;;8.41;100.00
12219;BME280;6172;42.646;23.344;2023-04-19T06:04:14;94175.22;;;8.35;100.00
12219;BME280;6172;42.646;23.344;2023-04-19T06:06:40;94189.47;;;8.46;100.00
12219;BME280;6172;42.646;23.344;2023-04-19T06:09:07;94184.63;;;8.30;100.00
12219;BME280;6172;42.646;23.344;2023-04-19T06:11:34;94188.38;;;8.40;100.00
12219;BME280;6172;42.646;23.344;2023-04-19T06:14:01;94188.34;;;8.43;100.00
12219;BME280;6172;42.646;23.344;2023-04-19T06:16:29;94186.88;;;8.62;100.00
12219;BME280;6172;42.646;23.344;2023-04-19T06:18:56;94175.91;;;8.69;100.00
12219;BME280;6172;42.646;23.344;2023-04-19T06:21:23;94182.56;;;8.87;100.00
12219;BME280;6172;42.646;23.344;2023-04-19T06:23:51;94183.84;;;9.02;100.00
12219;BME280;6172;42.646;23.344;2023-04-19T06:26:18;94186.94;;;8.81;100.00
12219;BME280;6172;42.646;23.344;2023-04-19T06:28:44;94191.00;;;8.47;100.00
12219;BME280;6172;42.646;23.344;2023-04-19T06:31:11;94190.97;;;8.73;100.00
12219;BME280;6172;42.646;23.344;2023-04-19T06:33:39;94188.69;;;8.68;100.00
12219;BME280;6172;42.646;23.344;2023-04-19T06:36:07;94194.31;;;8.81;100.00
12219;BME280;6172;42.646;23.344;2023-04-19T06:38:33;94185.09;;;8.98;100.00
12219;BME280;6172;42.646;23.344;2023-04-19T06:41:00;94180.84;;;8.97;100.00
12219;BME280;6172;42.646;23.344;2023-04-19T06:43:27;94190.63;;;9.14;100.00
12219;BME280;6172;42.646;23.344;2023-04-19T06:45:57;94183.69;;;9.32;100.00
12219;BME280;6172;42.646;23.344;2023-04-19T06:48:24;94186.19;;;9.23;100.00
12219;BME280;6172;42.646;23.344;2023-04-19T06:50:53;94187.03;;;9.40;100.00
12219;BME280;6172;42.646;23.344;2023-04-19T06:53:20;94178.03;;;9.62;100.00
12219;BME280;6172;42.646;23.344;2023-04-19T06:55:47;94187.22;;;9.68;100.00
12219;BME280;6172;42.646;23.344;2023-04-19T06:58:14;94186.25;;;9.78;100.00
12219;BME280;6172;42.646;23.344;2023-04-19T07:00:41;94185.94;;;10.12;100.00
12219;BME280;6172;42.646;23.344;2023-04-19T07:03:08;94185.66;;;10.42;100.00
12219;BME280;6172;42.646;23.344;2023-04-19T07:05:35;94185.81;;;10.35;100.00
12219;BME280;6172;42.646;23.344;2023-04-19T07:08:03;94187.94;;;10.43;100.00
12219;BME280;6172;42.646;23.344;2023-04-19T07:10:30;94191.84;;;10.26;100.00
12219;BME280;6172;42.646;23.344;2023-04-19T07:12:57;94179.00;;;10.27;100.00
12219;BME280;6172;42.646;23.344;2023-04-19T07:15:23;94186.44;;;10.59;100.00
12219;BME280;6172;42.646;23.344;2023-04-19T07:17:50;94187.03;;;10.66;100.00
12219;BME280;6172;42.646;23.344;2023-04-19T07:20:17;94190.41;;;11.02;100.00
12219;BME280;6172;42.646;23.344;2023-04-19T07:22:44;94176.28;;;10.59;100.00
12219;BME280;6172;42.646;23.344;2023-04-19T07:25:13;94179.97;;;10.85;100.00
12219;BME280;6172;42.646;23.344;2023-04-19T07:27:40;94180.66;;;10.89;100.00
12219;BME280;6172;42.646;23.344;2023-04-19T07:30:07;94185.25;;;10.92;100.00
12219;BME280;6172;42.646;23.344;2023-04-19T07:32:34;94178.66;;;11.05;100.00
12219;BME280;6172;42.646;23.344;2023-04-19T07:35:01;94167.03;;;10.73;100.00
12219;BME280;6172;42.646;23.344;2023-04-19T07:37:29;94184.75;;;11.25;100.00
12219;BME280;6172;42.646;23.344;2023-04-19T07:39:55;94181.25;;;10.96;100.00
12219;BME280;6172;42.646;23.344;2023-04-19T07:42:24;94170.63;;;11.14;100.00
12219;BME280;6172;42.646;23.344;2023-04-19T07:44:51;94180.84;;;11.26;100.00
12219;BME280;6172;42.646;23.344;2023-04-19T07:47:17;94178.97;;;11.23;100.00
12219;BME280;6172;42.646;23.344;2023-04-19T07:49:44;94183.13;;;11.44;100.00
12219;BME280;6172;42.646;23.344;2023-04-19T07:52:11;94181.53;;;11.14;100.00
12219;BME280;6172;42.646;23.344;2023-04-19T07:54:37;94177.47;;;11.06;100.00
12219;BME280;6172;42.646;23.344;2023-04-19T07:57:04;94178.19;;;11.23;100.00
12219;BME280;6172;42.646;23.344;2023-04-19T07:59:32;94182.56;;;11.20;100.00
12219;BME280;6172;42.646;23.344;2023-04-19T08:01:59;94177.84;;;11.37;100.00
12219;BME280;6172;42.646;23.344;2023-04-19T08:04:26;94170.44;;;11.21;100.00
12219;BME280;6172;42.646;23.344;2023-04-19T08:06:53;94175.03;;;11.24;100.00
12219;BME280;6172;42.646;23.344;2023-04-19T08:09:20;94179.47;;;11.18;100.00
12219;BME280;6172;42.646;23.344;2023-04-19T08:11:47;94176.59;;;11.54;100.00
12219;BME280;6172;42.646;23.344;2023-04-19T08:14:14;94181.50;;;11.46;100.00
12219;BME280;6172;42.646;23.344;2023-04-19T08:16:42;94180.44;;;11.56;100.00
12219;BME280;6172;42.646;23.344;2023-04-19T08:19:09;94182.06;;;11.54;100.00
12219;BME280;6172;42.646;23.344;2023-04-19T08:21:36;94182.50;;;11.52;100.00
12219;BME280;6172;42.646;23.344;2023-04-19T08:24:03;94168.03;;;11.68;100.00
12219;BME280;6172;42.646;23.344;2023-04-19T08:26:30;94180.66;;;11.49;100.00
12219;BME280;6172;42.646;23.344;2023-04-19T08:28:57;94165.69;;;11.54;100.00
12219;BME280;6172;42.646;23.344;2023-04-19T08:31:23;94174.31;;;11.52;100.00
12219;BME280;6172;42.646;23.344;2023-04-19T08:33:51;94171.06;;;11.57;100.00
12219;BME280;6172;42.646;23.344;2023-04-19T08:36:18;94171.44;;;11.43;100.00
12219;BME280;6172;42.646;23.344;2023-04-19T08:38:45;94174.06;;;11.02;100.00
12219;BME280;6172;42.646;23.344;2023-04-19T08:41:13;94169.50;;;11.28;100.00
12219;BME280;6172;42.646;23.344;2023-04-19T08:43:42;94164.69;;;11.48;100.00
12219;BME280;6172;42.646;23.344;2023-04-19T08:46:10;94175.63;;;11.48;100.00
12219;BME280;6172;42.646;23.344;2023-04-19T08:48:38;94167.78;;;11.62;100.00
12219;BME280;6172;42.646;23.344;2023-04-19T08:51:08;94158.63;;;11.56;100.00
12219;BME280;6172;42.646;23.344;2023-04-19T08:53:36;94162.94;;;11.54;100.00
12219;BME280;6172;42.646;23.344;2023-04-19T08:56:06;94154.41;;;11.80;100.00
12219;BME280;6172;42.646;23.344;2023-04-19T08:58:33;94163.47;;;11.90;100.00
12219;BME280;6172;42.646;23.344;2023-04-19T09:01:03;94153.34;;;12.03;100.00
12219;BME280;6172;42.646;23.344;2023-04-19T09:03:30;94152.56;;;11.90;100.00
12219;BME280;6172;42.646;23.344;2023-04-19T09:05:59;94158.25;;;11.95;100.00
12219;BME280;6172;42.646;23.344;2023-04-19T09:08:29;94155.84;;;11.97;100.00
12219;BME280;6172;42.646;23.344;2023-04-19T09:10:58;94154.41;;;11.80;100.00
12219;BME280;6172;42.646;23.344;2023-04-19T09:13:26;94149.53;;;12.00;100.00
12219;BME280;6172;42.646;23.344;2023-04-19T09:15:53;94150.84;;;11.96;100.00
12219;BME280;6172;42.646;23.344;2023-04-19T09:18:22;94146.28;;;12.05;100.00
12219;BME280;6172;42.646;23.344;2023-04-19T09:20:50;94144.94;;;12.10;100.00
12219;BME280;6172;42.646;23.344;2023-04-19T09:23:22;94134.25;;;12.15;100.00
12219;BME280;6172;42.646;23.344;2023-04-19T09:25:55;94151.50;;;12.37;100.00
12219;BME280;6172;42.646;23.344;2023-04-19T09:28:22;94146.81;;;12.25;100.00
12219;BME280;6172;42.646;23.344;2023-04-19T09:30:50;94149.44;;;12.29;100.00
12219;BME280;6172;42.646;23.344;2023-04-19T09:33:33;94148.25;;;12.55;100.00
12219;BME280;6172;42.646;23.344;2023-04-19T09:36:01;94149.25;;;12.61;100.00
12219;BME280;6172;42.646;23.344;2023-04-19T09:38:28;94143.66;;;12.64;100.00
12219;BME280;6172;42.646;23.344;2023-04-19T09:41:06;94141.66;;;12.90;100.00
12219;BME280;6172;42.646;23.344;2023-04-19T09:43:36;94133.75;;;13.26;100.00
12219;BME280;6172;42.646;23.344;2023-04-19T09:46:03;94132.69;;;13.45;100.00
12219;BME280;6172;42.646;23.344;2023-04-19T09:48:30;94120.34;;;13.84;97.12
12219;BME280;6172;42.646;23.344;2023-04-19T09:50:58;94121.75;;;14.19;92.62
12219;BME280;6172;42.646;23.344;2023-04-19T09:53:26;94120.09;;;14.61;89.83
12219;BME280;6172;42.646;23.344;2023-04-19T09:55:54;94123.06;;;14.84;84.77
12219;BME280;6172;42.646;23.344;2023-04-19T09:58:22;94114.94;;;14.72;79.22
12219;BME280;6172;42.646;23.344;2023-04-19T10:00:49;94110.31;;;14.51;82.66
12219;BME280;6172;42.646;23.344;2023-04-19T10:03:18;94109.50;;;14.81;80.43
12219;BME280;6172;42.646;23.344;2023-04-19T10:05:46;94103.09;;;14.75;79.00
12219;BME280;6172;42.646;23.344;2023-04-19T10:08:16;94102.38;;;15.11;77.57
12219;BME280;6172;42.646;23.344;2023-04-19T10:10:45;94098.88;;;15.19;73.24
12219;BME280;6172;42.646;23.344;2023-04-19T10:13:19;94096.28;;;15.16;71.47
12219;BME280;6172;42.646;23.344;2023-04-19T10:15:49;94096.75;;;15.50;70.27
12219;BME280;6172;42.646;23.344;2023-04-19T10:18:17;94096.44;;;15.75;69.13
12219;BME280;6172;42.646;23.344;2023-04-19T10:20:50;94090.31;;;15.71;66.64
12219;BME280;6172;42.646;23.344;2023-04-19T10:23:19;94101.91;;;15.66;67.20
12219;BME280;6172;42.646;23.344;2023-04-19T10:25:46;94083.59;;;15.72;65.78
12219;BME280;6172;42.646;23.344;2023-04-19T10:28:14;94089.34;;;16.01;64.32
12219;BME280;6172;42.646;23.344;2023-04-19T10:30:53;94081.16;;;15.65;63.94
12219;BME280;6172;42.646;23.344;2023-04-19T10:33:25;94080.00;;;16.49;62.09
12219;BME280;6172;42.646;23.344;2023-04-19T10:35:55;94075.13;;;16.44;63.06
12219;BME280;6172;42.646;23.344;2023-04-19T10:38:35;94079.34;;;16.54;59.09
12219;BME280;6172;42.646;23.344;2023-04-19T10:41:02;94083.88;;;16.34;60.94
12219;BME280;6172;42.646;23.344;2023-04-19T10:43:36;94080.88;;;16.55;61.41
12219;BME280;6172;42.646;23.344;2023-04-19T10:46:08;94076.75;;;16.92;60.34
12219;BME280;6172;42.646;23.344;2023-04-19T10:48:40;94075.13;;;16.77;59.96
12219;BME280;6172;42.646;23.344;2023-04-19T10:51:18;94064.44;;;17.02;58.48
12219;BME280;6172;42.646;23.344;2023-04-19T10:56:57;94062.25;;;16.83;58.53
12219;BME280;6172;42.646;23.344;2023-04-19T10:59:28;94053.38;;;16.88;57.44
12219;BME280;6172;42.646;23.344;2023-04-19T11:01:58;94048.34;;;16.86;57.98
12219;BME280;6172;42.646;23.344;2023-04-19T11:07:38;94052.25;;;16.94;56.42
12219;BME280;6172;42.646;23.344;2023-04-19T11:10:06;94044.34;;;16.87;56.84
12219;BME280;6172;42.646;23.344;2023-04-19T11:12:34;94056.94;;;16.47;57.78
12219;BME280;6172;42.646;23.344;2023-04-19T11:15:01;94050.44;;;16.68;56.41
12219;BME280;6172;42.646;23.344;2023-04-19T11:17:29;94051.59;;;16.76;55.37
12219;BME280;6172;42.646;23.344;2023-04-19T11:19:58;94052.25;;;16.38;55.78
12219;BME280;6172;42.646;23.344;2023-04-19T11:22:29;94050.88;;;16.34;55.51
12219;BME280;6172;42.646;23.344;2023-04-19T11:25:03;94047.88;;;16.23;55.67
12219;BME280;6172;42.646;23.344;2023-04-19T11:27:30;94057.06;;;16.52;55.60
12219;BME280;6172;42.646;23.344;2023-04-19T11:30:01;94051.50;;;16.61;54.55
12219;BME280;6172;42.646;23.344;2023-04-19T11:32:30;94049.78;;;16.73;54.09
12219;BME280;6172;42.646;23.344;2023-04-19T11:34:57;94042.78;;;16.63;53.80
12219;BME280;6172;42.646;23.344;2023-04-19T11:37:23;94044.50;;;16.60;55.17
12219;BME280;6172;42.646;23.344;2023-04-19T11:39:50;94045.41;;;16.66;54.35
12219;BME280;6172;42.646;23.344;2023-04-19T11:42:18;94042.09;;;16.53;54.36
12219;BME280;6172;42.646;23.344;2023-04-19T11:44:49;94049.03;;;16.72;53.67
12219;BME280;6172;42.646;23.344;2023-04-19T11:47:19;94041.63;;;16.55;53.29
12219;BME280;6172;42.646;23.344;2023-04-19T11:49:47;94042.75;;;16.72;50.80
12219;BME280;6172;42.646;23.344;2023-04-19T11:52:21;94036.53;;;16.62;52.92
12219;BME280;6172;42.646;23.344;2023-04-19T11:54:49;94035.34;;;17.01;52.00
12219;BME280;6172;42.646;23.344;2023-04-19T11:57:27;94028.19;;;17.04;50.40
12219;BME280;6172;42.646;23.344;2023-04-19T12:00:05;94038.63;;;17.14;49.57
12219;BME280;6172;42.646;23.344;2023-04-19T12:02:37;94027.47;;;16.94;48.97
12219;BME280;6172;42.646;23.344;2023-04-19T12:05:11;94026.13;;;16.90;49.93
12219;BME280;6172;42.646;23.344;2023-04-19T12:08:01;94034.97;;;16.94;50.04
12219;BME280;6172;42.646;23.344;2023-04-19T12:10:28;94034.56;;;16.86;46.94
12219;BME280;6172;42.646;23.344;2023-04-19T12:12:55;94029.22;;;16.83;47.08
12219;BME280;6172;42.646;23.344;2023-04-19T12:15:22;94020.78;;;16.63;49.00
12219;BME280;6172;42.646;23.344;2023-04-19T12:17:57;94011.41;;;16.93;48.35
12219;BME280;6172;42.646;23.344;2023-04-19T12:20:30;94022.31;;;16.64;48.65
12219;BME280;6172;42.646;23.344;2023-04-19T12:22:57;94027.97;;;16.60;49.55
12219;BME280;6172;42.646;23.344;2023-04-19T12:25:28;94025.91;;;16.79;49.08
12219;BME280;6172;42.646;23.344;2023-04-19T12:27:55;94018.97;;;16.60;49.35
12219;BME280;6172;42.646;23.344;2023-04-19T12:30:22;94020.22;;;16.82;47.87
12219;BME280;6172;42.646;23.344;2023-04-19T12:32:49;94017.22;;;16.71;46.54
12219;BME280;6172;42.646;23.344;2023-04-19T12:35:19;94008.63;;;16.78;46.47
12219;BME280;6172;42.646;23.344;2023-04-19T12:37:48;94000.59;;;16.89;47.15
12219;BME280;6172;42.646;23.344;2023-04-19T12:40:18;94007.28;;;17.12;44.66
12219;BME280;6172;42.646;23.344;2023-04-19T12:42:45;94011.47;;;17.07;44.66
12219;BME280;6172;42.646;23.344;2023-04-19T12:45:14;94002.00;;;17.23;44.26
12219;BME280;6172;42.646;23.344;2023-04-19T12:47:42;94004.97;;;17.49;44.53
12219;BME280;6172;42.646;23.344;2023-04-19T12:50:12;94010.97;;;17.91;44.73
12219;BME280;6172;42.646;23.344;2023-04-19T12:52:40;94006.81;;;17.66;45.83
12219;BME280;6172;42.646;23.344;2023-04-19T12:55:09;94002.84;;;17.82;45.91
12219;BME280;6172;42.646;23.344;2023-04-19T12:57:35;94004.22;;;18.41;45.22
12219;BME280;6172;42.646;23.344;2023-04-19T13:00:03;94001.25;;;18.10;45.54
12219;BME280;6172;42.646;23.344;2023-04-19T13:02:32;93997.94;;;17.18;47.54
12219;BME280;6172;42.646;23.344;2023-04-19T13:04:59;94008.97;;;17.48;47.83
12219;BME280;6172;42.646;23.344;2023-04-19T13:07:26;94003.88;;;17.70;47.55